Date,TemperatureHighF,TemperatureAvgF,TemperatureLowF,DewpointHighF,DewpointAvgF,DewpointLowF,HumidityHigh,HumidityAvg,HumidityLow,PressureMaxIn,PressureMinIn,WindSpeedMaxMPH,WindSpeedAvgMPH,GustSpeedMaxMPH,PrecipitationSumIn
2014-1-2,18.0,13.1,8.0,8.0,4.9,3.0,81,70,53,30.41,30.31,5,3,0,0.00
2014-1-3,34.0,30.6,25.0,19.0,15.7,10.0,57,53,51,30.30,29.94,11,8,0,0.00
2014-1-4,41.0,40.6,39.0,28.0,27.6,26.0,60,60,59,29.91,29.90,8,7,0,0.00
2014-1-5,13.0,10.0,6.0,10.0,4.6,-5.0,87,78,59,30.41,30.01,11,8,0,0.00
2014-1-6,2.0,-2.1,-11.0,-12.0,-14.9,-20.0,67,53,47,30.53,30.47,9,4,17,0.00
2014-1-7,37.0,27.6,-2.0,17.0,11.4,-8.0,75,51,42,30.33,30.11,9,4,0,0.00
2014-1-8,42.0,36.5,31.0,30.0,22.2,15.0,91,58,42,30.32,30.24,4,1,0,0.00
2014-1-9,34.0,32.5,30.0,32.0,30.1,28.0,95,92,86,30.24,30.09,5,3,0,0.00
2014-1-10,49.0,45.7,39.0,47.0,44.0,36.0,98,94,89,29.83,29.56,12,7,0,0.00
2014-1-11,49.0,40.7,35.0,33.0,32.8,32.0,93,75,51,29.85,29.74,8,6,0,0.00
2014-1-12,67.0,60.2,44.0,31.0,28.4,26.0,53,31,23,29.87,29.60,17,13,0,0.00
2014-1-17,30.0,25.8,15.0,7.0,6.2,5.0,67,44,36,30.14,30.10,7,4,0,0.00
2014-1-19,37.0,36.0,34.0,23.0,23.0,23.0,63,59,57,30.10,30.09,3,3,0,0.00
2014-1-20,56.0,47.8,39.0,31.0,27.9,24.0,64,47,31,30.03,29.92,8,3,0,0.00
2014-1-21,22.0,21.6,21.0,-1.0,-3.7,-5.0,35,32,31,30.26,30.24,3,2,0,0.00
2014-1-22,36.0,32.9,27.0,16.0,12.2,6.0,52,42,31,30.20,30.09,10,6,0,0.00
2014-1-23,14.0,9.1,1.0,-5.0,-7.4,-9.0,74,47,36,30.73,30.66,7,4,0,0.00
2014-1-24,37.0,29.1,9.0,7.0,0.3,-6.0,60,30,20,30.48,29.99,9,5,0,0.00
2014-1-27,16.0,14.1,11.0,-5.0,-9.1,-12.0,45,34,28,30.42,30.35,9,6,0,0.00
2014-1-28,21.0,17.1,6.0,-1.0,-6.3,-9.0,72,36,28,30.49,30.36,5,3,0,0.00
2014-1-29,40.0,33.0,9.0,17.0,10.2,4.0,79,41,25,30.30,30.14,8,4,0,0.00
2014-1-30,47.0,41.0,32.0,18.0,13.9,9.0,38,33,28,29.84,29.78,15,8,0,0.00
2014-1-31,33.0,32.2,32.0,32.0,28.0,22.0,97,86,67,30.01,29.85,2,1,0,0.00